Home > Products > Valid Products > MTR

000
SAUS41 KOKX 282153
MTRNYC
METAR KNYC 282151Z AUTO 17004KT 10SM OVC100 12/M01 A3006 RMK AO2
SLP169 T01171011 $





000
SAUS41 KOKX 282055
MTRMTP
METAR KMTP 282054Z AUTO 17007KT 100V180 09/03 A3006 RMK AO1 SLP180
T00940033 55002





000
SAUS41 KOKX 282055
MTRMTP
METAR KMTP 282054Z AUTO 17007KT 100V180 09/03 A3006 RMK AO1 SLP180
T00940033 55002





000
SAUS41 KOKX 282052
MTRNYC
METAR KNYC 282051Z AUTO 10SM CLR 13/M01 A3005 RMK AO2 SLP167
T01281011 58004 $





000
SAUS41 KOKX 282052
MTRNYC
METAR KNYC 282051Z AUTO 10SM CLR 13/M01 A3005 RMK AO2 SLP167
T01281011 58004 $





000
SAUS41 KOKX 281955
MTRMTP
METAR KMTP 281954Z AUTO 16008KT 09/03 A3006 RMK AO1 SLP178 T00940028





000
SAUS41 KOKX 281952
MTRNYC
METAR KNYC 281951Z AUTO VRB05KT 10SM CLR 13/M01 A3005 RMK AO2 SLP169
T01281006 $





000
SAUS41 KOKX 281855
MTRMTP
METAR KMTP 281854Z AUTO 14006KT 10/01 A3006 RMK AO1 SLP178 T01000011





000
SAUS41 KOKX 281855
MTRMTP
METAR KMTP 281854Z AUTO 14006KT 10/01 A3006 RMK AO1 SLP178 T01000011





000
SAUS41 KOKX 281852
MTRNYC
METAR KNYC 281851Z AUTO 20007KT 10SM CLR 13/01 A3006 RMK AO2 SLP171
T01280011 $





000
SAUS41 KOKX 281755
MTRMTP
METAR KMTP 281754Z AUTO VRB06KT 10/M01 A3007 RMK AO1 SLP182
T01001011 10122 20089 56006





000
SAUS41 KOKX 281753
MTRNYC
METAR KNYC 281751Z AUTO VRB06KT 10SM CLR 13/M01 A3006 RMK AO2 SLP171
T01331006 10150 20094 58004 $





000
SAUS41 KOKX 281655
MTRMTP
METAR KMTP 281654Z AUTO VRB06KT 11/M02 A3008 RMK AO1 SLP185
T01061017





000
SAUS41 KOKX 281655
MTRMTP
METAR KMTP 281654Z AUTO VRB06KT 11/M02 A3008 RMK AO1 SLP185
T01061017





000
SAUS41 KOKX 281652
MTRNYC
METAR KNYC 281651Z AUTO VRB05KT 10SM CLR 14/M06 A3007 RMK AO2 SLP172
T01441056 $





000
SAUS41 KOKX 281555
MTRMTP
METAR KMTP 281554Z AUTO 12/M03 A3007 RMK AO1 SLP182 T01171033





000
SAUS41 KOKX 281553
MTRNYC
METAR KNYC 281551Z AUTO VRB03KT 10SM CLR 13/M04 A3009 RMK AO2 SLP180
T01331044 $





000
SAUS41 KOKX 281456
MTRMTP
METAR KMTP 281454Z AUTO 08006KT 11/M03 A3009 RMK AO1 SLP188
T01061033 51012





000
SAUS41 KOKX 281456
MTRMTP
METAR KMTP 281454Z AUTO 08006KT 11/M03 A3009 RMK AO1 SLP188
T01061033 51012





000
SAUS41 KOKX 281452
MTRNYC
METAR KNYC 281451Z AUTO VRB06KT 10SM CLR 12/M04 A3007 RMK AO2 SLP175
T01221039 58001 $





000
SAUS41 KOKX 281355
MTRMTP
METAR KMTP 281354Z AUTO VRB06KT 09/M01 A3008 RMK AO1 SLP184
T00941011





000
SAUS41 KOKX 281352
MTRNYC
METAR KNYC 281351Z AUTO 00000KT 10SM CLR 12/M06 A3008 RMK AO2 SLP179
T01171056 $





000
SAUS41 KOKX 281352
MTRNYC
METAR KNYC 281351Z AUTO 00000KT 10SM CLR 12/M06 A3008 RMK AO2 SLP179
T01171056 $





000
SAUS41 KOKX 281255
MTRMTP
METAR KMTP 281254Z AUTO 05007KT 09/M01 A3007 RMK AO1 SLP182
T00941011





000
SAUS41 KOKX 281252
MTRNYC
METAR KNYC 281251Z AUTO VRB05KT 10SM CLR 10/M05 A3008 RMK AO2 SLP178
T01001050 $





000
SAUS41 KOKX 281155
MTRMTP
METAR KMTP 281154Z AUTO 06008KT 09/M01 A3005 RMK AO1 SLP176
T00941011 10094 20078 51027





000
SAUS41 KOKX 281153
MTRNYC
METAR KNYC 281151Z AUTO VRB04KT 10SM CLR 09/M06 A3008 RMK AO2 SLP177
T00941061 10111 20089 52028 $





000
SAUS41 KOKX 281153
MTRNYC
METAR KNYC 281151Z AUTO VRB04KT 10SM CLR 09/M06 A3008 RMK AO2 SLP177
T00941061 10111 20089 52028 $





000
SAUS41 KOKX 281055
MTRMTP
METAR KMTP 281054Z AUTO 04006KT 08/01 A3004 RMK AO1 SLP172 T00830006





000
SAUS41 KOKX 281055
MTRMTP
METAR KMTP 281054Z AUTO 04006KT 08/01 A3004 RMK AO1 SLP172 T00830006





000
SAUS41 KOKX 281052
MTRNYC
METAR KNYC 281051Z AUTO VRB05KT 10SM CLR 09/M07 A3006 RMK AO2 SLP170
T00891067 $





000
SAUS41 KOKX 280955
MTRMTP
METAR KMTP 280954Z AUTO 03006KT 08/00 A3001 RMK AO1 SLP163 T00780000





000
SAUS41 KOKX 280955
MTRMTP
METAR KMTP 280954Z AUTO 03006KT 08/00 A3001 RMK AO1 SLP163 T00780000





000
SAUS41 KOKX 280952
MTRNYC
METAR KNYC 280951Z AUTO VRB05KT 10SM CLR 09/M06 A3002 RMK AO2 SLP156
T00891056 $





000
SAUS41 KOKX 280855
MTRMTP
METAR KMTP 280854Z AUTO 34004KT 08/02 A2997 RMK AO1 SLP150 T00780017
53018





000
SAUS41 KOKX 280853
MTRNYC
METAR KNYC 280851Z AUTO 06006KT 10SM CLR 09/M03 A2999 RMK AO2 SLP149
T00941033 53018 $





000
SAUS41 KOKX 280755
MTRMTP
METAR KMTP 280754Z AUTO 33004KT 08/03 A2995 RMK AO1 SLP143 T00830033





000
SAUS41 KOKX 280753
MTRNYC
METAR KNYC 280751Z AUTO 05010G15KT 10SM CLR 11/01 A2997 RMK AO2
SLP139 T01060006 $





000
SAUS41 KOKX 280753
MTRNYC
METAR KNYC 280751Z AUTO 05010G15KT 10SM CLR 11/01 A2997 RMK AO2
SLP139 T01060006 $





000
SAUS41 KOKX 280655
MTRMTP
METAR KMTP 280654Z AUTO 30005KT 09/06 A2993 RMK AO1 SLP135 T00890061





000
SAUS41 KOKX 280655
MTRMTP
METAR KMTP 280654Z AUTO 30005KT 09/06 A2993 RMK AO1 SLP135 T00890061





000
SAUS41 KOKX 280652
MTRNYC
METAR KNYC 280651Z AUTO VRB03KT 9SM CLR 11/06 A2995 RMK AO2 SLP133
T01060061 $





000
SAUS41 KOKX 280559 COR
MTRNYC
METAR KNYC 280551Z AUTO 00000KT 9SM CLR 11/07 A2994 RMK AO2 SLP130
T01110067 10133 20111 50004 $





000
SAUS41 KOKX 280557 COR
MTRNYC
METAR KNYC 280551Z AUTO 00000KT 9SM CLR 11/07 A2994 RMK AO2 SLP130
T01110067 10133 20111 50004 $





000
SAUS41 KOKX 280556 COR
MTRNYC
METAR KNYC 280551Z AUTO 00000KT 9SM CLR 11/07 A2994 RMK AO2 SLP130
T01110067 10133 20111 50004 $





000
SAUS41 KOKX 280556 COR
MTRNYC
METAR KNYC 280551Z AUTO 00000KT 9SM CLR 11/07 A2994 RMK AO2 SLP130
T01110067 10133 20111 50004 $





000
SAUS41 KOKX 280555
MTRMTP
METAR KMTP 280554Z AUTO 28004KT 09/06 A2992 RMK AO1 SLP132 T00890061
10089 20078 50007





000
SAUS41 KOKX 280455
MTRMTP
METAR KMTP 280454Z AUTO 00000KT 08/05 A2993 RMK AO1 SLP136 T00830050
401060022





000
SAUS41 KOKX 280455
MTRMTP
METAR KMTP 280454Z AUTO 00000KT 08/05 A2993 RMK AO1 SLP136 T00830050
401060022





000
SAUS41 KOKX 280452
MTRNYC
METAR KNYC 280451Z AUTO 27004KT 9SM CLR 12/07 A2995 RMK AO2 SLP132
T01170067 401670078 $





000
SAUS41 KOKX 280452
MTRNYC
METAR KNYC 280451Z AUTO 27004KT 9SM CLR 12/07 A2995 RMK AO2 SLP132
T01170067 401670078 $





000
SAUS41 KOKX 280355
MTRMTP
METAR KMTP 280354Z AUTO 25003KT 08/05 A2991 RMK AO1 SLP128 T00830050





000
SAUS41 KOKX 280352
MTRNYC
METAR KNYC 280351Z AUTO 27004KT 10SM CLR 12/06 A2994 RMK AO2 SLP130
T01170061 $





000
SAUS41 KOKX 280352
MTRNYC
METAR KNYC 280351Z AUTO 27004KT 10SM CLR 12/06 A2994 RMK AO2 SLP130
T01170061 $





000
SAUS41 KOKX 280255
MTRMTP
METAR KMTP 280254Z AUTO 23005KT 08/04 A2990 RMK AO1 SLP125 T00830039
51010





000
SAUS41 KOKX 280252
MTRNYC
METAR KNYC 280251Z AUTO 25005KT 10SM CLR 12/06 A2993 RMK AO2 SLP127
T01220061 53013 $





000
SAUS41 KOKX 280155
MTRMTP
METAR KMTP 280154Z AUTO VRB04KT 08/03 A2990 RMK AO1 SLP124 T00830033





000
SAUS41 KOKX 280152
MTRNYC
METAR KNYC 280151Z AUTO VRB05KT 10SM CLR 12/06 A2992 RMK AO2 SLP122
T01220061 $





000
SAUS41 KOKX 280055
MTRMTP
METAR KMTP 280054Z AUTO VRB04KT 08/04 A2989 RMK AO1 SLP120 T00780039





000
SAUS41 KOKX 280052
MTRNYC
METAR KNYC 280051Z AUTO 24004KT 10SM CLR 12/06 A2989 RMK AO2 SLP114
T01220061 $





000
SAUS41 KOKX 272355
MTRMTP
METAR KMTP 272354Z AUTO 21006KT 08/04 A2987 RMK AO1 SLP114 T00830044
10106 20083 58010





000
SAUS41 KOKX 272352
MTRNYC
METAR KNYC 272351Z AUTO VRB04KT 10SM CLR 12/06 A2989 RMK AO2 SLP114
T01220056 10167 20122 56002 $





000
SAUS41 KOKX 272352
MTRNYC
METAR KNYC 272351Z AUTO VRB04KT 10SM CLR 12/06 A2989 RMK AO2 SLP114
T01220056 10167 20122 56002 $





000
SAUS41 KOKX 272255
MTRMTP
METAR KMTP 272254Z AUTO 20007KT 09/04 A2989 RMK AO1 SLP119 T00890044





000
SAUS41 KOKX 272253
MTRNYC
METAR KNYC 272251Z AUTO 17008KT 10SM CLR 13/05 A2989 RMK AO2 SLP114
T01280050 $





000
SAUS41 KOKX 272155
MTRMTP
METAR KMTP 272154Z AUTO 20007KT 09/04 A2990 RMK AO1 SLP124 T00940044





000
SAUS41 KOKX 272153
MTRNYC
METAR KNYC 272151Z AUTO 16007KT 130V200 10SM CLR 14/06 A2989 RMK AO2
SLP113 T01440056 $





000
SAUS41 KOKX 272153
MTRNYC
METAR KNYC 272151Z AUTO 16007KT 130V200 10SM CLR 14/06 A2989 RMK AO2
SLP113 T01440056 $





000
SAUS41 KOKX 272055
MTRMTP
METAR KMTP 272054Z AUTO VRB04KT 11/04 A2990 RMK AO1 SLP125 T01060039
56011





000
SAUS41 KOKX 272055
MTRMTP
METAR KMTP 272054Z AUTO VRB04KT 11/04 A2990 RMK AO1 SLP125 T01060039
56011





000
SAUS41 KOKX 272052
MTRNYC
METAR KNYC 272051Z AUTO VRB06KT 10SM CLR 15/05 A2990 RMK AO2 SLP116
T01500050 55009 $





000
SAUS41 KOKX 271955
MTRMTP
METAR KMTP 271954Z AUTO 19006KT 10/03 A2991 RMK AO1 SLP127 T01000033





000
SAUS41 KOKX 271953
MTRNYC
METAR KNYC 271951Z AUTO VRB03KT 10SM CLR 17/05 A2989 RMK AO2 SLP114
T01670050 $





000
SAUS41 KOKX 271855
MTRMTP
METAR KMTP 271854Z AUTO 17006KT 10/04 A2992 RMK AO1 SLP132 T01000039





000
SAUS41 KOKX 271852
MTRNYC
METAR KNYC 271851Z AUTO 00000KT 10SM FEW041 15/03 A2990 RMK AO2
SLP118 T01500033 $





000
SAUS41 KOKX 271852
MTRNYC
METAR KNYC 271851Z AUTO 00000KT 10SM FEW041 15/03 A2990 RMK AO2
SLP118 T01500033 $





000
SAUS41 KOKX 271755
MTRMTP
METAR KMTP 271754Z AUTO VRB05KT 11/04 A2993 RMK AO1 SLP135 T01060044
10106 20061 58007





000
SAUS41 KOKX 271753
MTRNYC
METAR KNYC 271751Z AUTO VRB03KT 10SM FEW035 14/04 A2993 RMK AO2
SLP125 T01440039 10150 20089 58013 $





000
SAUS41 KOKX 271655
MTRMTP
METAR KMTP 271654Z AUTO VRB04KT 10/04 A2995 RMK AO1 SLP142 T01000039





000
SAUS41 KOKX 271652
MTRNYC
METAR KNYC 271651Z AUTO 00000KT 10SM OVC033 13/04 A2994 RMK AO2
SLP131 T01330039 $





000
SAUS41 KOKX 271555
MTRMTP
METAR KMTP 271554Z AUTO VRB04KT 10/04 A2995 RMK AO1 SLP142 T01000039





000
SAUS41 KOKX 271552
MTRNYC
METAR KNYC 271551Z AUTO 00000KT 10SM OVC032 12/03 A2996 RMK AO2
SLP136 T01170028 $





000
SAUS41 KOKX 271455 COR
MTRNYC
METAR KNYC 271451Z AUTO 00000KT 10SM OVC032 11/03 A2996 RMK AO2
SLP138 T01110028 50004 $





000
SAUS41 KOKX 271455 COR
MTRNYC
METAR KNYC 271451Z AUTO 00000KT 10SM OVC032 11/03 A2996 RMK AO2
SLP138 T01110028 50004 $





000
SAUS41 KOKX 271455
MTRMTP
METAR KMTP 271454Z AUTO 00000KT 09/02 A2995 RMK AO1 SLP143 T00890017
53001





000
SAUS41 KOKX 271453 COR
MTRNYC
METAR KNYC 271451Z AUTO 00000KT 10SM OVC032 11/03 A2996 RMK AO2
SLP138 T01110028 50004 $





000
SAUS41 KOKX 271355
MTRMTP
METAR KMTP 271354Z AUTO 29004KT 08/02 A2995 RMK AO1 SLP141 T00780022





000
SAUS41 KOKX 271353
MTRNYC
METAR KNYC 271351Z AUTO VRB03KT 10SM BKN032 OVC044 11/03 A2997 RMK
AO2 SLP141 T01060028 $





000
SAUS41 KOKX 271255
MTRMTP
METAR KMTP 271254Z AUTO 32003KT 07/02 A2995 RMK AO1 SLP141 T00670022





000
SAUS41 KOKX 271255 COR
MTRNYC
METAR KNYC 271251Z AUTO VRB05KT 10SM OVC031 10/03 A2996 RMK AO2
SLP136 T01000033 $





000
SAUS41 KOKX 271253 COR
MTRNYC
METAR KNYC 271251Z AUTO VRB05KT 10SM OVC031 10/03 A2996 RMK AO2
SLP136 T01000033 $





000
SAUS41 KOKX 271253 COR
MTRNYC
METAR KNYC 271251Z AUTO VRB05KT 10SM OVC031 10/03 A2996 RMK AO2
SLP136 T01000033 $





000
SAUS41 KOKX 271155
MTRMTP
METAR KMTP 271154Z AUTO 36003KT 07/02 A2995 RMK AO1 SLP142 70003
T00670022 10067 20022 53011





000
SAUS41 KOKX 271152
MTRNYC
METAR KNYC 271151Z AUTO 06005KT 10SM OVC032 09/03 A2995 RMK AO2
SLP135 70007 T00940028 10094 20078 53005 $





000
SAUS41 KOKX 271152
MTRNYC
METAR KNYC 271151Z AUTO 06005KT 10SM OVC032 09/03 A2995 RMK AO2
SLP135 70007 T00940028 10094 20078 53005 $





000
SAUS41 KOKX 271055
MTRMTP
METAR KMTP 271054Z AUTO 00000KT 05/03 A2994 RMK AO1 SLP137 T00500028





000
SAUS41 KOKX 271053
MTRNYC
METAR KNYC 271051Z AUTO 06006KT 10SM OVC031 08/02 A2994 RMK AO2
SLP132 T00830022 $





000
SAUS41 KOKX 270955
MTRMTP
METAR KMTP 270954Z AUTO 00000KT 04/02 A2993 RMK AO1 SLP134 T00440017





000
SAUS41 KOKX 270952
MTRNYC
METAR KNYC 270951Z AUTO 02006KT 10SM OVC032 08/03 A2994 RMK AO2
SLP130 T00830028 $





000
SAUS41 KOKX 270952
MTRNYC
METAR KNYC 270951Z AUTO 02006KT 10SM OVC032 08/03 A2994 RMK AO2
SLP130 T00830028 $





000
SAUS41 KOKX 270855
MTRMTP
METAR KMTP 270854Z AUTO 35003KT 04/02 A2992 RMK AO1 SLP131 T00440017
50012





000
SAUS41 KOKX 270852
MTRNYC
METAR KNYC 270851Z AUTO 00000KT 10SM OVC032 08/03 A2994 RMK AO2
SLP130 T00830033 51015 $





000
SAUS41 KOKX 270755
MTRMTP
METAR KMTP 270754Z AUTO 36006KT 05/02 A2992 RMK AO1 SLP131 T00500017





000
SAUS41 KOKX 270755 COR
MTRNYC
METAR KNYC 270751Z AUTO 06005KT 10SM OVC031 08/03 A2993 RMK AO2
SLP127 T00780033 $





000
SAUS41 KOKX 270754 COR
MTRNYC
METAR KNYC 270751Z AUTO 06005KT 10SM OVC031 08/03 A2993 RMK AO2
SLP127 T00780033 $





000
SAUS41 KOKX 270754 COR
MTRNYC
METAR KNYC 270751Z AUTO 06005KT 10SM OVC031 08/03 A2993 RMK AO2
SLP127 T00780033 $





000
SAUS41 KOKX 270753
MTRNYC
METAR KNYC 270751Z AUTO 06005KT 10SM OVC031 08/03 A2993 RMK AO2
SLP127 T00780033 $





000
SAUS41 KOKX 270658 COR
MTRNYC
METAR KNYC 270651Z AUTO 00000KT 10SM SCT017 OVC030 08/04 A2991 RMK
AO2 SLP119 T00780039 $





000
SAUS41 KOKX 270657 COR
MTRNYC
METAR KNYC 270651Z AUTO 00000KT 10SM SCT017 OVC030 08/04 A2991 RMK
AO2 SLP119 T00780039 $





000
SAUS41 KOKX 270655
MTRMTP
METAR KMTP 270654Z AUTO 01008KT 05/02 A2989 RMK AO1 SLP121 T00500017





000
SAUS41 KOKX 270655 COR
MTRNYC
METAR KNYC 270651Z AUTO 00000KT 10SM SCT017 OVC030 08/04 A2991 RMK
AO2 SLP119 T00780039 $





000
SAUS41 KOKX 270653 COR
MTRNYC
METAR KNYC 270651Z AUTO 00000KT 10SM SCT017 OVC030 08/04 A2991 RMK
AO2 SLP119 T00780039 $





000
SAUS41 KOKX 270558 COR
MTRNYC
METAR KNYC 270551Z AUTO 08006KT 10SM BKN017 OVC031 08/04 A2990 RMK
AO2 SLP115 T00830039 10094 20078 51006 $





000
SAUS41 KOKX 270556 COR
MTRNYC
METAR KNYC 270551Z AUTO 08006KT 10SM BKN017 OVC031 08/04 A2990 RMK
AO2 SLP115 T00830039 10094 20078 51006 $





000
SAUS41 KOKX 270555 COR
MTRNYC
METAR KNYC 270551Z AUTO 08006KT 10SM BKN017 OVC031 08/04 A2990 RMK
AO2 SLP115 T00830039 10094 20078 51006 $





000
SAUS41 KOKX 270555
MTRMTP
METAR KMTP 270554Z AUTO 02004KT 05/02 A2988 RMK AO1 SLP118 T00500022
10061 20050 58002





000
SAUS41 KOKX 270553 COR
MTRNYC
METAR KNYC 270551Z AUTO 08006KT 10SM BKN017 OVC031 08/04 A2990 RMK
AO2 SLP115 T00830039 10094 20078 51006 $





000
SAUS41 KOKX 270532
MTRNYC
SPECI KNYC 270530Z AUTO 08005KT 10SM SCT017 OVC030 08/04 A2989 RMK
AO2 T00830039 $





000
SAUS41 KOKX 270532
MTRNYC
SPECI KNYC 270530Z AUTO 08005KT 10SM SCT017 OVC030 08/04 A2989 RMK
AO2 T00830039 $





000
SAUS41 KOKX 270455
MTRMTP
METAR KMTP 270454Z AUTO 02004KT 06/03 A2989 RMK AO1 SLP122 T00560028
401060056





000
SAUS41 KOKX 270452
MTRNYC
METAR KNYC 270451Z AUTO VRB05KT 10SM SCT019 OVC028 08/04 A2990 RMK
AO2 SLP115 T00830039 401560083 $





000
SAUS41 KOKX 270419 COR
MTRNYC
SPECI KNYC 270415Z AUTO VRB06KT 10SM SCT015 OVC028 08/04 A2989 RMK
AO2 T00830039 $





000
SAUS41 KOKX 270417 COR
MTRNYC
SPECI KNYC 270415Z AUTO VRB06KT 10SM SCT015 OVC028 08/04 A2989 RMK
AO2 T00830039 $





000
SAUS41 KOKX 270355 COR
MTRNYC
METAR KNYC 270351Z AUTO 09007KT 060V130 10SM OVC014 08/04 A2990 RMK
AO2 SLP115 T00830044 $





000
SAUS41 KOKX 270355 COR
MTRNYC
METAR KNYC 270351Z AUTO 09007KT 060V130 10SM OVC014 08/04 A2990 RMK
AO2 SLP115 T00830044 $





000
SAUS41 KOKX 270355
MTRMTP
METAR KMTP 270354Z AUTO 02006KT 06/03 A2990 RMK AO1 SLP124 T00560028





000
SAUS41 KOKX 270355
MTRMTP
METAR KMTP 270354Z AUTO 02006KT 06/03 A2990 RMK AO1 SLP124 T00560028





000
SAUS41 KOKX 270353 COR
MTRNYC
METAR KNYC 270351Z AUTO 09007KT 060V130 10SM OVC014 08/04 A2990 RMK
AO2 SLP115 T00830044 $





000
SAUS41 KOKX 270255
MTRMTP
METAR KMTP 270254Z AUTO 02005KT 06/03 A2989 RMK AO1 SLP120 T00560033
52020





000
SAUS41 KOKX 270253
MTRNYC
METAR KNYC 270251Z AUTO 06009G16KT 9SM BKN013 OVC020 09/05 A2988 RMK
AO2 SLP109 T00890050 51027 $





000
SAUS41 KOKX 270155
MTRMTP
METAR KMTP 270154Z AUTO 04006KT 06/03 A2987 RMK AO1 SLP114 T00610033





000
SAUS41 KOKX 270155 COR
MTRNYC
METAR KNYC 270151Z AUTO 07009G16KT 040V110 9SM OVC011 08/05 A2987
RMK AO2 SLP106 T00830050 $





000
SAUS41 KOKX 270155 COR
MTRNYC
METAR KNYC 270151Z AUTO 07009G16KT 040V110 9SM OVC011 08/05 A2987
RMK AO2 SLP106 T00830050 $





000
SAUS41 KOKX 270153 COR
MTRNYC
METAR KNYC 270151Z AUTO 07009G16KT 040V110 9SM OVC011 08/05 A2987
RMK AO2 SLP106 T00830050 $





000
SAUS41 KOKX 270123
MTRNYC
SPECI KNYC 270121Z AUTO 07007KT 8SM OVC010 09/06 A2986 RMK AO2
T00890056 $





000
SAUS41 KOKX 270055
MTRMTP
METAR KMTP 270054Z AUTO 03006G15KT 06/03 A2984 RMK AO1 SLP106
T00610033





000
SAUS41 KOKX 270055
MTRMTP
METAR KMTP 270054Z AUTO 03006G15KT 06/03 A2984 RMK AO1 SLP106
T00610033





000
SAUS41 KOKX 270053
MTRNYC
METAR KNYC 270051Z AUTO 09009KT 060V130 7SM OVC009 08/06 A2985 RMK
AO2 SLP099 T00830056 $





000
SAUS41 KOKX 262355
MTRMTP
METAR KMTP 262354Z AUTO 03006KT 06/04 A2983 RMK AO1 SLP100 T00610039
10078 20061 53025





000
SAUS41 KOKX 262352
MTRNYC
METAR KNYC 262351Z AUTO 08007KT 060V120 8SM OVC010 09/07 A2980 RMK
AO2 SLP082 60007 T00940067 10150 20094 53023 $





000
SAUS41 KOKX 262352
MTRNYC
METAR KNYC 262351Z AUTO 08007KT 060V120 8SM OVC010 09/07 A2980 RMK
AO2 SLP082 60007 T00940067 10150 20094 53023 $





000
SAUS41 KOKX 262331
MTRNYC
SPECI KNYC 262330Z AUTO 08008KT 6SM HZ OVC010 10/07 A2978 RMK AO2
T01000072 $





000
SAUS41 KOKX 262255
MTRMTP
METAR KMTP 262254Z AUTO 04008KT 06/04 A2980 RMK AO1 SLP091 T00610039





000
SAUS41 KOKX 262255
MTRMTP
METAR KMTP 262254Z AUTO 04008KT 06/04 A2980 RMK AO1 SLP091 T00610039





000
SAUS41 KOKX 262252
MTRNYC
METAR KNYC 262251Z AUTO 06008KT 5SM BR OVC008 11/08 A2978 RMK AO2
SLP074 T01060083 $





000
SAUS41 KOKX 262156
MTRMTP
METAR KMTP 262154Z AUTO 04010G17KT 07/04 A2975 RMK AO1 SLP075
T00670039





000
SAUS41 KOKX 262156
MTRMTP
METAR KMTP 262154Z AUTO 04010G17KT 07/04 A2975 RMK AO1 SLP075
T00670039





000
SAUS41 KOKX 262152
MTRNYC
METAR KNYC 262151Z AUTO 09005KT 5SM BR OVC007 11/09 A2975 RMK AO2
RAE09 SLP065 P0002 T01060089 $





000
SAUS41 KOKX 262152
MTRNYC
METAR KNYC 262151Z AUTO 09005KT 5SM BR OVC007 11/09 A2975 RMK AO2
RAE09 SLP065 P0002 T01060089 $





000
SAUS41 KOKX 262114
MTRNYC
SPECI KNYC 262112Z AUTO 08005KT 4SM BR OVC006 11/09 A2972 RMK AO2
RAE09 P0002 T01060089 $





000
SAUS41 KOKX 262100
MTRNYC
SPECI KNYC 262059Z AUTO VRB04KT 2SM -RA BR BKN006 OVC085 11/09 A2972
RMK AO2 P0001 T01110094 $





000
SAUS41 KOKX 262055
MTRMTP
METAR KMTP 262054Z AUTO 03009KT 07/04 A2975 RMK AO1 SLP075 T00670039
53016





000
SAUS41 KOKX 262052
MTRNYC
METAR KNYC 262051Z AUTO 10005KT 3SM -RA BR BKN007 BKN055 OVC080
11/09 A2973 RMK AO2 RAB11 PRESRR SLP059 P0004 60005 T01110094 53015
$





000
SAUS41 KOKX 262039
MTRNYC
SPECI KNYC 262038Z AUTO 07008KT 3SM -RA BR SCT055 SCT070 OVC085
12/09 A2970 RMK AO2 RAB11 P0004 T01170094 $





000
SAUS41 KOKX 262018
MTRNYC
SPECI KNYC 262017Z AUTO 06008KT 1 3/4SM RA SCT046 BKN060 OVC080
12/09 A2972 RMK AO2 VIS 1V5 RAB11 P0001 T01220094 $





000
SAUS41 KOKX 262018
MTRNYC
SPECI KNYC 262017Z AUTO 06008KT 1 3/4SM RA SCT046 BKN060 OVC080
12/09 A2972 RMK AO2 VIS 1V5 RAB11 P0001 T01220094 $





000
SAUS41 KOKX 261955
MTRMTP
METAR KMTP 261954Z AUTO 02010G16KT 07/04 A2974 RMK AO1 SLP069
T00720039





000
SAUS41 KOKX 261952
MTRNYC
METAR KNYC 261951Z AUTO 06009KT 010V080 6SM HZ FEW040 SCT080 BKN120
13/09 A2970 RMK AO2 RAB27E45 SLP049 P0001 T01330094 $





000
SAUS41 KOKX 261952
MTRNYC
METAR KNYC 261951Z AUTO 06009KT 010V080 6SM HZ FEW040 SCT080 BKN120
13/09 A2970 RMK AO2 RAB27E45 SLP049 P0001 T01330094 $





000
SAUS41 KOKX 261855
MTRMTP
METAR KMTP 261854Z AUTO 02010KT 08/06 A2972 RMK AO1 SLP064 T00780056





000
SAUS41 KOKX 261855
MTRMTP
METAR KMTP 261854Z AUTO 02010KT 08/06 A2972 RMK AO1 SLP064 T00780056





000
SAUS41 KOKX 261853
MTRNYC
METAR KNYC 261851Z AUTO 06007KT 7SM FEW100 16/08 A2968 RMK AO2
SLP040 T01560083 $





000
SAUS41 KOKX 261755
MTRMTP
METAR KMTP 261754Z AUTO 02011G16KT 07/06 A2971 RMK AO1 SLP059 60003
T00720056 10083 20072 55004





000
SAUS41 KOKX 261753
MTRNYC
METAR KNYC 261751Z AUTO VRB05KT 7SM SCT100 14/08 A2968 RMK AO2
SLP043 T01390083 10156 20117 56012 $





000
SAUS41 KOKX 261701
MTRNYC
SPECI KNYC 261701Z AUTO 05006KT 6SM HZ SCT010 SCT016 BKN110 14/09
A2969 RMK AO2 T01440089 $





000
SAUS41 KOKX 261656
MTRMTP
METAR KMTP 261654Z AUTO 05008G16KT 07/06 A2969 RMK AO1 SLP054 P0002
T00720061





000
SAUS41 KOKX 261653
MTRNYC
METAR KNYC 261651Z AUTO 07006KT 6SM HZ BKN010 BKN016 14/09 A2969 RMK
AO2 SLP044 T01390089 $





000
SAUS41 KOKX 261612
MTRNYC
SPECI KNYC 261610Z AUTO 11006KT 5SM HZ OVC009 13/09 A2970 RMK AO2
T01280089 $





000
SAUS41 KOKX 261555
MTRMTP
METAR KMTP 261554Z AUTO 06009G16KT 08/07 A2968 RMK AO1 SLP051
T00830072





000
SAUS41 KOKX 261552
MTRNYC
METAR KNYC 261551Z AUTO 07006KT 4SM HZ OVC010 13/09 A2970 RMK AO2
SLP048 T01330094 $





000
SAUS41 KOKX 261457 COR
MTRNYC
METAR KNYC 261451Z AUTO 05006KT 5SM HZ OVC011 13/10 A2972 RMK AO2
SLP055 T01330100 56017 $





000
SAUS41 KOKX 261456 COR
MTRNYC
METAR KNYC 261451Z AUTO 05006KT 5SM HZ OVC011 13/10 A2972 RMK AO2
SLP055 T01330100 56017 $





000
SAUS41 KOKX 261455 COR
MTRNYC
METAR KNYC 261451Z AUTO 05006KT 5SM HZ OVC011 13/10 A2972 RMK AO2
SLP055 T01330100 56017 $





000
SAUS41 KOKX 261455
MTRMTP
METAR KMTP 261454Z AUTO 06010G17KT 08/07 A2972 RMK AO1 SLP063 60001
T00830072 58027





000
SAUS41 KOKX 261455
MTRMTP
METAR KMTP 261454Z AUTO 06010G17KT 08/07 A2972 RMK AO1 SLP063 60001
T00830072 58027





000
SAUS41 KOKX 261453 COR
MTRNYC
METAR KNYC 261451Z AUTO 05006KT 5SM HZ OVC011 13/10 A2972 RMK AO2
SLP055 T01330100 56017 $





000
SAUS41 KOKX 261443 COR
MTRNYC
SPECI KNYC 261439Z AUTO VRB05G15KT 5SM HZ BKN011 OVC075 13/10 A2972
RMK AO2 T01280100 $





000
SAUS41 KOKX 261443 COR
MTRNYC
SPECI KNYC 261439Z AUTO VRB05G15KT 5SM HZ BKN011 OVC075 13/10 A2972
RMK AO2 T01280100 $





000
SAUS41 KOKX 261441 COR
MTRNYC
SPECI KNYC 261439Z AUTO VRB05G15KT 5SM HZ BKN011 OVC075 13/10 A2972
RMK AO2 T01280100 $





000
SAUS41 KOKX 261430
MTRNYC
SPECI KNYC 261429Z AUTO 02006KT 5SM HZ SCT012 BKN016 OVC075 13/10
A2973 RMK AO2 T01280100 $





000
SAUS41 KOKX 261415
MTRNYC
SPECI KNYC 261414Z AUTO VRB04KT 5SM HZ BKN010 OVC075 13/10 A2972 RMK
AO2 T01330100 $





000
SAUS41 KOKX 261355
MTRMTP
METAR KMTP 261354Z AUTO 06010KT 08/07 A2975 RMK AO1 SLP074 T00830072





000
SAUS41 KOKX 261352
MTRNYC
METAR KNYC 261351Z AUTO 06004KT 4SM HZ OVC007 13/10 A2972 RMK AO2
SLP056 T01330100 $





000
SAUS41 KOKX 261255
MTRMTP
METAR KMTP 261254Z AUTO 07008G16KT 08/07 A2978 RMK AO1 SLP084 P0001
T00830072





000
SAUS41 KOKX 261252
MTRNYC
METAR KNYC 261251Z AUTO VRB04KT 5SM BR OVC006 12/09 A2974 RMK AO2
SLP063 T01170094 $





000
SAUS41 KOKX 261155
MTRMTP
METAR KMTP 261154Z AUTO 06010KT 08/07 A2980 RMK AO1 SLP089 60017
70017 T00830067 10106 20083 55019





000
SAUS41 KOKX 261152
MTRNYC
METAR KNYC 261151Z AUTO 06004KT 5SM BR OVC008 12/09 A2977 RMK AO2
SLP072 60017 70017 T01170094 10128 20106 58005 $





000
SAUS41 KOKX 261055
MTRMTP
METAR KMTP 261054Z AUTO 07008G16KT 09/08 A2979 RMK AO1 PRESFR SLP086
P0007 T00890078





000
SAUS41 KOKX 261052
MTRNYC
METAR KNYC 261051Z AUTO VRB05KT 5SM BR BKN008 11/09 A2978 RMK AO2
SLP074 T01110094 $





000
SAUS41 KOKX 261014
MTRNYC
SPECI KNYC 261013Z AUTO VRB03KT 4SM BR BKN009 OVC085 11/09 A2979 RMK
AO2 T01110094 $





000
SAUS41 KOKX 260955
MTRMTP
METAR KMTP 260954Z AUTO 05008KT 09/08 A2981 RMK AO1 SLP093 P0010
T00890078





000
SAUS41 KOKX 260952
MTRNYC
METAR KNYC 260951Z AUTO 00000KT 6SM BR FEW008 BKN085 BKN120 11/09
A2979 RMK AO2 PRESRR SLP079 T01110089 $





000
SAUS41 KOKX 260855
MTRMTP
METAR KMTP 260854Z AUTO 00000KT 10/08 A2985 RMK AO1 SLP108 T01000078
55012





000
SAUS41 KOKX 260852
MTRNYC
METAR KNYC 260851Z AUTO VRB06KT 7SM FEW009 BKN095 11/09 A2978 RMK
AO2 RAE51 SLP076 P0010 60017 T01060089 58015 $





000
SAUS41 KOKX 260810
MTRNYC
SPECI KNYC 260808Z AUTO 07008KT 3SM RA BR FEW026 BKN047 OVC085 11/09
A2981 RMK AO2 P0006 T01110089 $





000
SAUS41 KOKX 260758
MTRNYC
SPECI KNYC 260756Z AUTO 07008KT 2SM +RA BR FEW019 SCT028 OVC040
11/09 A2982 RMK AO2 PRESFR P0003 T01110089 $





000
SAUS41 KOKX 260757 COR
MTRMTP
METAR KMTP 260754Z AUTO 04003KT 10/08 A2983 RMK AO1 SLP101 T01000078





000
SAUS41 KOKX 260756 COR
MTRMTP
METAR KMTP 260754Z AUTO 04003KT 10/08 A2983 RMK AO1 SLP101 T01000078





000
SAUS41 KOKX 260753
MTRNYC
METAR KNYC 260751Z AUTO 03008KT 350V070 1 1/2SM +RA BR SCT019 BKN028
OVC040 11/09 A2983 RMK AO2 RAB37 SLP093 P0007 T01110089 $





000
SAUS41 KOKX 260750
MTRNYC
SPECI KNYC 260748Z AUTO 04006G16KT 1 3/4SM +RA SCT018 BKN028 OVC046
12/08 A2985 RMK AO2 VIS 1V5 RAB37 P0005 $





000
SAUS41 KOKX 260741
MTRNYC
SPECI KNYC 260739Z AUTO 28009G14KT 8SM -RA SCT018 BKN028 OVC046
13/07 A2990 RMK AO2 RAB37 PRESRR P0000 T01280072 $





000
SAUS41 KOKX 260655
MTRMTP
METAR KMTP 260654Z AUTO 00000KT 10/08 A2986 RMK AO1 SLP111 T01000078





000
SAUS41 KOKX 260654 COR
MTRNYC
METAR KNYC 260651Z AUTO 06009KT 10SM OVC050 13/08 A2979 RMK AO2
PRESFR SLP077 T01280078 $





000
SAUS41 KOKX 260654 COR
MTRNYC
METAR KNYC 260651Z AUTO 06009KT 10SM OVC050 13/08 A2979 RMK AO2
PRESFR SLP077 T01280078 $





000
SAUS41 KOKX 260653 COR
MTRNYC
METAR KNYC 260651Z AUTO 06009KT 10SM OVC050 13/08 A2979 RMK AO2
PRESFR SLP077 T01280078 $





000
SAUS41 KOKX 260555
MTRMTP
METAR KMTP 260554Z AUTO 00000KT 10/08 A2989 RMK AO1 SLP120 T01000078
10106 20089 56014





000
SAUS41 KOKX 260553
MTRNYC
METAR KNYC 260551Z AUTO 08005KT 10SM CLR 13/08 A2983 RMK AO2 SLP091
T01280078 10161 20128 58020 $





000
SAUS41 KOKX 260455
MTRMTP
METAR KMTP 260454Z AUTO 00000KT 09/08 A2990 RMK AO1 SLP125 T00940078
401440083





000
SAUS41 KOKX 260455
MTRMTP
METAR KMTP 260454Z AUTO 00000KT 09/08 A2990 RMK AO1 SLP125 T00940078
401440083





000
SAUS41 KOKX 260453
MTRNYC
METAR KNYC 260451Z AUTO 07005KT 10SM CLR 13/08 A2986 RMK AO2 SLP102
T01330078 402060100 $





000
SAUS41 KOKX 260453
MTRNYC
METAR KNYC 260451Z AUTO 07005KT 10SM CLR 13/08 A2986 RMK AO2 SLP102
T01330078 402060100 $





000
SAUS41 KOKX 260355
MTRMTP
METAR KMTP 260354Z AUTO 16003KT 10/08 A2991 RMK AO1 SLP129 T01000078





000
SAUS41 KOKX 260352
MTRNYC
METAR KNYC 260351Z AUTO 00000KT 10SM CLR 14/08 A2988 RMK AO2 SLP107
T01390078 $





000
SAUS41 KOKX 260255
MTRMTP
METAR KMTP 260254Z AUTO 00000KT 10/07 A2993 RMK AO1 SLP134 T01000067
50000





000
SAUS41 KOKX 260252
MTRNYC
METAR KNYC 260251Z AUTO 13005KT 10SM CLR 14/07 A2989 RMK AO2 SLP111
T01440072 58008 $





000
SAUS41 KOKX 260252
MTRNYC
METAR KNYC 260251Z AUTO 13005KT 10SM CLR 14/07 A2989 RMK AO2 SLP111
T01440072 58008 $





000
SAUS41 KOKX 260155
MTRMTP
METAR KMTP 260154Z AUTO 00000KT 10/07 A2994 RMK AO1 SLP138 T01000072





000
SAUS41 KOKX 260152
MTRNYC
METAR KNYC 260151Z AUTO 00000KT 10SM CLR 15/07 A2991 RMK AO2 SLP121
T01500067 $





000
SAUS41 KOKX 260057 COR
MTRMTP
METAR KMTP 260054Z AUTO 00000KT 10/07 A2994 RMK AO1 SLP137 T01000067





000
SAUS41 KOKX 260056 COR
MTRMTP
METAR KMTP 260054Z AUTO 00000KT 10/07 A2994 RMK AO1 SLP137 T01000067





000
SAUS41 KOKX 260052
MTRNYC
METAR KNYC 260051Z AUTO 00000KT 10SM CLR 15/07 A2992 RMK AO2 SLP123
T01500072 $





000
SAUS41 KOKX 252355
MTRMTP
METAR KMTP 252354Z AUTO VRB04KT 10/06 A2993 RMK AO1 SLP134 T01000061
10144 20100 58010





000
SAUS41 KOKX 252355
MTRMTP
METAR KMTP 252354Z AUTO VRB04KT 10/06 A2993 RMK AO1 SLP134 T01000061
10144 20100 58010





000
SAUS41 KOKX 252352
MTRNYC
METAR KNYC 252351Z AUTO VRB04KT 10SM CLR 16/07 A2991 RMK AO2 SLP119
T01610072 10206 20161 58004 $





000
SAUS41 KOKX 252255
MTRMTP
METAR KMTP 252254Z AUTO VRB04KT 11/07 A2994 RMK AO1 SLP138 T01110067





000
SAUS41 KOKX 252252
MTRNYC
METAR KNYC 252251Z AUTO 10SM CLR 17/07 A2991 RMK AO2 SLP121
T01720067 $





000
SAUS41 KOKX 252155
MTRMTP
METAR KMTP 252154Z AUTO 20006KT 13/07 A2995 RMK AO1 SLP141 T01280067





    US Dept of Commerce
    National Oceanic and Atmospheric Administration
    National Weather Service
    1325 East West Highway
    Silver Spring, MD 20910
    Page Author: NWS Internet Services Team
Disclaimer
Information Quality
Credits
Glossary
Privacy Policy
Freedom of Information Act (FOIA)
About Us
Career Opportunities